Time;durP1;ratioP1;P1;durP2;ratioP2;P2;SDS_P1;SDS_P2;PMS_P1;PMS_P2;Temp;Humidity;BMP_temperature;BMP_pressure;BME280_temperature;BME280_humidity;BME280_pressure;Samples;Min_cycle;Max_cycle;Signal;HPM_P1;HPM_P2
2022/09/21 00:00:39;;;;;;;9.00;3.05;;;13.10;99.90;;;;;;5028801;28;20462;-77
2022/09/21 00:03:06;;;;;;;8.70;2.63;;;13.10;99.90;;;;;;5029385;28;20048;-77
2022/09/21 00:05:33;;;;;;;5.57;2.50;;;13.10;99.90;;;;;;5028306;28;20030;-76
2022/09/21 00:08:01;;;;;;;9.32;3.03;;;13.10;99.90;;;;;;5029787;28;20024;-77
2022/09/21 00:10:27;;;;;;;10.35;2.88;;;13.10;99.90;;;;;;5030956;28;20420;-77
2022/09/21 00:12:53;;;;;;;5.68;2.88;;;13.20;99.90;;;;;;5032219;28;20048;-77
2022/09/21 00:15:20;;;;;;;9.10;2.70;;;13.20;99.90;;;;;;5032629;28;20351;-77
2022/09/21 00:17:49;;;;;;;7.60;2.85;;;13.20;99.90;;;;;;5033228;28;20033;-77
2022/09/21 00:20:14;;;;;;;8.38;2.95;;;13.10;99.90;;;;;;5032122;28;20029;-77
2022/09/21 00:22:40;;;;;;;7.20;2.85;;;13.20;99.90;;;;;;5029759;28;20053;-77
2022/09/21 00:25:07;;;;;;;7.38;2.90;;;13.10;99.90;;;;;;5027311;28;20021;-77
2022/09/21 00:27:33;;;;;;;8.40;2.70;;;13.20;99.90;;;;;;5017877;28;20037;-77
2022/09/21 00:30:02;;;;;;;12.05;3.15;;;13.20;99.90;;;;;;5020128;28;20026;-77
2022/09/21 00:32:32;;;;;;;6.75;2.67;;;13.20;99.90;;;;;;5031295;28;20495;-77
2022/09/21 00:34:59;;;;;;;9.60;3.13;;;13.20;99.90;;;;;;5031347;28;20096;-77
2022/09/21 00:37:26;;;;;;;7.72;2.80;;;13.20;99.90;;;;;;5030613;28;20025;-77
2022/09/21 00:39:52;;;;;;;11.85;3.00;;;13.20;99.90;;;;;;5032842;28;20025;-77
2022/09/21 00:42:24;;;;;;;9.00;3.03;;;13.20;99.90;;;;;;5030955;28;20045;-77
2022/09/21 00:44:50;;;;;;;7.20;2.70;;;13.20;99.90;;;;;;5019557;28;20033;-77
2022/09/21 00:47:21;;;;;;;12.10;2.63;;;13.20;99.90;;;;;;5032000;28;20025;-77
2022/09/21 00:49:50;;;;;;;5.65;2.75;;;13.20;99.90;;;;;;5030836;28;20105;-77
2022/09/21 00:52:18;;;;;;;7.95;2.88;;;13.20;99.90;;;;;;5031933;28;20417;-77
2022/09/21 00:54:49;;;;;;;6.72;3.00;;;13.20;99.90;;;;;;5031471;28;20389;-77
2022/09/21 00:57:16;;;;;;;6.43;2.75;;;13.10;99.90;;;;;;5031875;28;20393;-77
2022/09/21 00:59:44;;;;;;;5.50;2.63;;;13.10;99.90;;;;;;5025493;28;20164;-77
2022/09/21 01:02:10;;;;;;;8.75;3.10;;;13.10;99.90;;;;;;5027727;28;20033;-77
2022/09/21 01:04:37;;;;;;;6.22;2.95;;;13.10;99.90;;;;;;5031297;28;20059;-76
2022/09/21 01:07:08;;;;;;;5.82;2.60;;;13.10;99.90;;;;;;5025522;28;20022;-77
2022/09/21 01:09:34;;;;;;;10.45;2.80;;;13.10;99.90;;;;;;5029713;28;20029;-77
2022/09/21 01:12:18;;;;;;;7.05;2.55;;;13.10;99.90;;;;;;5025429;28;20469;-77
2022/09/21 01:15:10;;;;;;;8.90;3.08;;;13.10;99.90;;;;;;5031210;28;20096;-77
2022/09/21 01:17:44;;;;;;;4.32;2.80;;;13.00;99.90;;;;;;5031729;28;20048;-77
2022/09/21 01:20:25;;;;;;;6.00;3.15;;;13.00;99.90;;;;;;5030681;28;20406;-77
2022/09/21 01:23:12;;;;;;;6.20;2.63;;;13.00;99.90;;;;;;5028724;28;20025;-77
2022/09/21 01:26:11;;;;;;;6.57;3.00;;;12.90;99.90;;;;;;5030494;28;20393;-77
2022/09/21 01:29:00;;;;;;;8.77;2.92;;;12.90;99.90;;;;;;5025220;28;20027;-77
2022/09/21 01:31:32;;;;;;;7.25;2.47;;;12.90;99.90;;;;;;5026526;28;20022;-77
2022/09/21 01:34:04;;;;;;;6.78;3.08;;;12.90;99.90;;;;;;5027593;28;20429;-77
2022/09/21 01:36:32;;;;;;;12.25;3.40;;;12.80;99.90;;;;;;5031127;28;20083;-77
2022/09/21 01:39:10;;;;;;;8.70;3.40;;;12.80;99.90;;;;;;5024163;28;20421;-77
2022/09/21 01:41:38;;;;;;;5.88;2.75;;;12.80;99.90;;;;;;5020409;28;20041;-76
2022/09/21 01:44:09;;;;;;;8.02;3.55;;;12.70;99.90;;;;;;5026307;28;20482;-77
2022/09/21 01:46:36;;;;;;;10.95;3.75;;;12.70;99.90;;;;;;5027201;28;20297;-77
2022/09/21 01:49:09;;;;;;;6.70;3.70;;;12.60;99.90;;;;;;5031352;28;20482;-77
2022/09/21 01:51:42;;;;;;;7.18;3.58;;;12.60;99.90;;;;;;5031324;28;20057;-77
2022/09/21 01:54:20;;;;;;;6.85;3.35;;;12.60;99.90;;;;;;5029705;28;20029;-77
2022/09/21 01:56:52;;;;;;;7.88;3.35;;;12.60;99.90;;;;;;5023729;28;20033;-77
2022/09/21 01:59:26;;;;;;;7.15;3.25;;;12.50;99.90;;;;;;5028949;28;20033;-76
2022/09/21 02:01:56;;;;;;;9.93;3.63;;;12.50;99.90;;;;;;5019105;28;20028;-77
2022/09/21 02:04:22;;;;;;;7.30;3.35;;;12.50;99.90;;;;;;5025334;28;20030;-77
2022/09/21 02:06:49;;;;;;;4.78;3.33;;;12.50;99.90;;;;;;5024525;28;20033;-77
2022/09/21 02:09:16;;;;;;;5.97;3.10;;;12.50;99.90;;;;;;5022952;28;20429;-77
2022/09/21 02:11:43;;;;;;;7.78;3.45;;;12.50;99.90;;;;;;5027543;28;20034;-77
2022/09/21 02:14:13;;;;;;;7.03;3.50;;;12.40;99.90;;;;;;5025964;28;20025;-77
2022/09/21 02:16:47;;;;;;;7.93;3.63;;;12.40;99.90;;;;;;5029482;28;20096;-77
2022/09/21 02:19:34;;;;;;;9.82;3.38;;;12.50;99.90;;;;;;5030231;28;20076;-77
2022/09/21 02:22:14;;;;;;;6.50;3.30;;;12.50;99.90;;;;;;5025990;28;20044;-77
2022/09/21 02:25:12;;;;;;;7.25;3.95;;;12.50;99.90;;;;;;5018892;28;20053;-77
2022/09/21 02:27:47;;;;;;;8.60;3.70;;;12.50;99.90;;;;;;4993872;28;20037;-77
2022/09/21 02:30:18;;;;;;;6.80;3.40;;;12.50;99.90;;;;;;5006127;28;20038;-77
2022/09/21 02:33:05;;;;;;;7.95;3.60;;;12.50;99.90;;;;;;5003826;28;20897;-76
2022/09/21 02:35:35;;;;;;;7.57;3.38;;;12.50;99.90;;;;;;5002585;28;20048;-77
2022/09/21 02:38:26;;;;;;;7.40;3.55;;;12.60;99.90;;;;;;5008434;28;20054;-77
2022/09/21 02:41:05;;;;;;;9.48;4.05;;;12.50;99.90;;;;;;4972587;28;20042;-77
2022/09/21 02:43:30;;;;;;;7.60;3.42;;;12.50;99.90;;;;;;4999170;28;20049;-77
2022/09/21 02:46:14;;;;;;;6.75;4.15;;;12.50;99.90;;;;;;5002259;28;20057;-77
2022/09/21 02:48:48;;;;;;;8.52;3.83;;;12.50;99.90;;;;;;4997759;28;20041;-76
2022/09/21 02:51:19;;;;;;;6.75;3.75;;;12.60;99.90;;;;;;5000875;28;20072;-76
2022/09/21 02:53:47;;;;;;;6.93;3.63;;;12.50;99.90;;;;;;5013313;28;20061;-77
2022/09/21 02:56:13;;;;;;;6.95;3.65;;;12.50;99.90;;;;;;5001487;28;20022;-76
2022/09/21 02:58:45;;;;;;;9.25;3.70;;;12.50;99.90;;;;;;5013428;28;20034;-77
2022/09/21 03:01:14;;;;;;;9.02;3.80;;;12.50;99.90;;;;;;5001955;28;20030;-77
2022/09/21 03:03:40;;;;;;;12.52;4.00;;;12.50;99.90;;;;;;5003888;28;20513;-77
2022/09/21 03:06:06;;;;;;;7.90;3.55;;;12.50;99.90;;;;;;5026797;28;20046;-76
2022/09/21 03:08:31;;;;;;;8.43;3.67;;;12.50;99.90;;;;;;5021818;28;20548;-76
2022/09/21 03:10:57;;;;;;;7.22;3.40;;;12.40;99.90;;;;;;5026539;28;20014;-77
2022/09/21 03:13:23;;;;;;;8.02;3.63;;;12.40;99.90;;;;;;5024305;28;20036;-77
2022/09/21 03:15:49;;;;;;;9.27;3.80;;;12.40;99.90;;;;;;5026197;28;20076;-77
2022/09/21 03:18:15;;;;;;;7.93;3.58;;;12.40;99.90;;;;;;5029140;28;20092;-77
2022/09/21 03:20:44;;;;;;;5.85;3.28;;;12.40;99.90;;;;;;5031130;28;20103;-77
2022/09/21 03:23:11;;;;;;;10.20;3.70;;;12.30;99.90;;;;;;5029420;28;20026;-77
2022/09/21 03:25:37;;;;;;;7.78;3.58;;;12.30;99.90;;;;;;5028278;28;20068;-76
2022/09/21 03:28:03;;;;;;;9.18;3.80;;;12.30;99.90;;;;;;5030627;28;20033;-77
2022/09/21 03:30:30;;;;;;;6.80;3.30;;;12.20;99.90;;;;;;5027790;28;20040;-76
2022/09/21 03:32:57;;;;;;;8.30;3.60;;;12.20;99.90;;;;;;5029433;28;20061;-77
2022/09/21 03:35:25;;;;;;;4.82;3.30;;;12.10;99.90;;;;;;5028558;28;20380;-76
2022/09/21 03:37:51;;;;;;;7.43;3.60;;;12.10;99.90;;;;;;5029894;28;20048;-77
2022/09/21 03:40:18;;;;;;;4.85;3.17;;;12.10;99.90;;;;;;5016591;28;20022;-77
2022/09/21 03:42:44;;;;;;;6.32;3.28;;;12.10;99.90;;;;;;5028479;28;20025;-77
2022/09/21 03:45:10;;;;;;;6.22;3.40;;;12.00;99.90;;;;;;5031144;28;20478;-77
2022/09/21 03:47:37;;;;;;;6.00;3.15;;;12.00;99.90;;;;;;5028432;28;20131;-77
2022/09/21 03:50:03;;;;;;;10.40;3.83;;;12.00;99.90;;;;;;5024986;28;20485;-77
2022/09/21 03:52:30;;;;;;;5.80;3.38;;;11.90;99.90;;;;;;5019245;28;20436;-77
2022/09/21 03:54:55;;;;;;;5.90;3.10;;;11.90;99.90;;;;;;5033518;28;20024;-77
2022/09/21 03:57:21;;;;;;;9.43;3.72;;;11.80;99.90;;;;;;5020710;28;20030;-77
2022/09/21 03:59:47;;;;;;;6.78;3.33;;;11.80;99.90;;;;;;5032443;28;20517;-77
2022/09/21 04:02:13;;;;;;;7.28;3.53;;;11.80;99.90;;;;;;5032385;28;20513;-77
2022/09/21 04:04:39;;;;;;;7.07;3.38;;;11.70;99.90;;;;;;5018824;28;21177;-77
2022/09/21 04:07:05;;;;;;;7.35;3.67;;;11.70;99.90;;;;;;5032772;28;20933;-77
2022/09/21 04:09:30;;;;;;;6.35;3.40;;;11.70;99.90;;;;;;5019982;28;20474;-77
2022/09/21 04:11:56;;;;;;;7.18;3.53;;;11.60;99.90;;;;;;5032150;28;20492;-77
2022/09/21 04:14:22;;;;;;;5.40;3.30;;;11.60;99.90;;;;;;5030108;28;20029;-77
2022/09/21 04:16:49;;;;;;;7.47;3.75;;;11.60;99.90;;;;;;5032366;28;20034;-77
2022/09/21 04:19:15;;;;;;;6.22;3.80;;;11.60;99.90;;;;;;5032890;28;20363;-77
2022/09/21 04:21:41;;;;;;;6.35;3.42;;;11.60;99.90;;;;;;5036735;28;20044;-77
2022/09/21 04:24:06;;;;;;;7.30;3.83;;;11.60;99.90;;;;;;5031922;28;20032;-77
2022/09/21 04:26:33;;;;;;;9.88;4.65;;;11.60;99.90;;;;;;5026715;28;20079;-77
2022/09/21 04:29:00;;;;;;;10.20;4.15;;;11.60;99.90;;;;;;5029323;28;20115;-77
2022/09/21 04:31:27;;;;;;;8.35;4.10;;;11.60;99.90;;;;;;5032229;28;20033;-77
2022/09/21 04:33:55;;;;;;;7.50;3.75;;;11.60;99.90;;;;;;5029938;28;20018;-77
2022/09/21 04:36:23;;;;;;;6.68;3.72;;;11.60;99.90;;;;;;5034859;28;20030;-77
2022/09/21 04:38:49;;;;;;;8.52;4.38;;;11.60;99.90;;;;;;5032595;28;20359;-77
2022/09/21 04:41:15;;;;;;;10.77;3.90;;;11.60;99.90;;;;;;5034089;28;20028;-77
2022/09/21 04:43:42;;;;;;;7.50;3.65;;;11.60;99.90;;;;;;5018728;28;20261;-77
2022/09/21 04:46:11;;;;;;;5.65;3.60;;;11.60;99.90;;;;;;5026304;28;20021;-76
2022/09/21 04:48:37;;;;;;;6.60;3.42;;;11.60;99.90;;;;;;5035223;28;20022;-77
2022/09/21 04:51:03;;;;;;;4.95;2.90;;;11.60;99.90;;;;;;5028084;28;20405;-77
2022/09/21 04:53:29;;;;;;;6.38;3.80;;;11.60;99.90;;;;;;5020874;28;20022;-77
2022/09/21 04:55:55;;;;;;;6.65;3.58;;;11.60;99.90;;;;;;5020010;28;20100;-77
2022/09/21 04:58:22;;;;;;;7.75;3.50;;;11.60;99.90;;;;;;5067927;28;20116;-77
2022/09/21 05:00:50;;;;;;;9.48;3.80;;;11.60;99.90;;;;;;5034345;28;20033;-77
2022/09/21 05:03:16;;;;;;;7.30;3.30;;;11.60;99.90;;;;;;5031900;28;20029;-77
2022/09/21 05:05:49;;;;;;;7.05;3.60;;;11.60;99.90;;;;;;5037887;28;20061;-77
2022/09/21 05:08:15;;;;;;;8.40;3.60;;;11.60;99.90;;;;;;5025727;28;20502;-78
2022/09/21 05:10:42;;;;;;;9.20;3.60;;;11.60;99.90;;;;;;5034330;28;20487;-79
2022/09/21 05:13:08;;;;;;;6.65;3.95;;;11.50;99.90;;;;;;5021631;28;20038;-78
2022/09/21 05:15:37;;;;;;;6.07;3.65;;;11.50;99.90;;;;;;5028769;28;20036;-78
2022/09/21 05:18:02;;;;;;;7.93;4.05;;;11.50;99.90;;;;;;5021748;28;20032;-78
2022/09/21 05:20:28;;;;;;;8.98;3.70;;;11.50;99.90;;;;;;5027773;28;20440;-78
2022/09/21 05:22:53;;;;;;;10.15;3.75;;;11.50;99.90;;;;;;5022608;28;20060;-77
2022/09/21 05:25:19;;;;;;;6.05;4.07;;;11.50;99.90;;;;;;5033724;28;20056;-77
2022/09/21 05:27:45;;;;;;;7.43;4.07;;;11.50;99.90;;;;;;5035036;28;20052;-77
2022/09/21 05:30:11;;;;;;;7.15;4.28;;;11.50;99.90;;;;;;5037875;28;20036;-78
2022/09/21 05:32:48;;;;;;;11.07;4.15;;;11.50;99.90;;;;;;5044865;28;20264;-77
2022/09/21 05:35:41;;;;;;;9.50;4.45;;;11.50;99.90;;;;;;5040786;28;20056;-77
2022/09/21 05:38:17;;;;;;;8.75;4.50;;;11.50;99.90;;;;;;5043490;28;20417;-77
2022/09/21 05:40:43;;;;;;;8.15;4.57;;;11.50;99.90;;;;;;5028712;28;20026;-78
2022/09/21 05:43:10;;;;;;;10.50;4.50;;;11.50;99.90;;;;;;5023060;28;20045;-77
2022/09/21 05:45:42;;;;;;;8.30;4.47;;;11.50;99.90;;;;;;5028190;28;20093;-75
2022/09/21 05:48:16;;;;;;;6.97;4.20;;;11.50;99.90;;;;;;5014329;28;20026;-78
2022/09/21 05:50:57;;;;;;;11.50;5.05;;;11.60;99.90;;;;;;5018964;28;20035;-78
2022/09/21 05:53:42;;;;;;;11.95;4.40;;;11.60;99.90;;;;;;5019289;28;20559;-78
2022/09/21 05:56:22;;;;;;;9.80;4.75;;;11.60;99.90;;;;;;5032906;28;20029;-78
2022/09/21 05:59:09;;;;;;;7.55;4.63;;;11.60;99.90;;;;;;5037381;28;20122;-78
2022/09/21 06:01:59;;;;;;;8.20;4.80;;;11.60;99.90;;;;;;5029316;28;20040;-78
2022/09/21 06:04:24;;;;;;;8.48;4.45;;;11.60;99.90;;;;;;5028684;28;20389;-78
2022/09/21 06:06:50;;;;;;;10.32;4.63;;;11.60;99.90;;;;;;5029717;28;20018;-78
2022/09/21 06:09:16;;;;;;;6.68;4.00;;;11.70;99.90;;;;;;5041905;28;20428;-78
2022/09/21 06:11:41;;;;;;;7.93;4.28;;;11.70;99.90;;;;;;5030904;28;20473;-79
2022/09/21 06:14:07;;;;;;;9.27;4.22;;;11.70;99.90;;;;;;5037918;28;20045;-78
2022/09/21 06:16:40;;;;;;;8.38;4.30;;;11.70;99.90;;;;;;5044942;28;20340;-77
2022/09/21 06:19:09;;;;;;;10.35;4.47;;;11.70;99.90;;;;;;5048787;28;20036;-76
2022/09/21 06:21:35;;;;;;;9.25;4.65;;;11.70;99.90;;;;;;5033233;28;20036;-76
2022/09/21 06:24:01;;;;;;;8.15;4.68;;;11.70;99.90;;;;;;5031496;28;20385;-76
2022/09/21 06:26:27;;;;;;;6.80;4.15;;;11.70;99.90;;;;;;5031894;28;20025;-76
2022/09/21 06:28:53;;;;;;;8.25;4.50;;;11.70;99.90;;;;;;5031982;28;20047;-77
2022/09/21 06:31:19;;;;;;;10.13;4.93;;;11.70;99.90;;;;;;5049140;28;20029;-77
2022/09/21 06:33:44;;;;;;;9.93;4.55;;;11.70;99.90;;;;;;5049782;28;20024;-77
2022/09/21 06:36:10;;;;;;;9.80;4.55;;;11.70;99.90;;;;;;5040363;28;20023;-77
2022/09/21 06:38:35;;;;;;;9.23;4.55;;;11.70;99.90;;;;;;5045046;28;20471;-77
2022/09/21 06:41:03;;;;;;;11.55;4.65;;;11.70;99.90;;;;;;5034917;28;20036;-76
2022/09/21 06:43:29;;;;;;;11.25;5.07;;;11.70;99.90;;;;;;5032898;28;20061;-76
2022/09/21 06:46:00;;;;;;;10.05;5.10;;;11.70;99.90;;;;;;5034040;28;20028;-76
2022/09/21 06:48:27;;;;;;;12.02;5.40;;;11.70;99.90;;;;;;5022021;28;20379;-76
2022/09/21 06:51:04;;;;;;;14.50;5.65;;;11.70;99.90;;;;;;5032058;28;20080;-76
2022/09/21 06:53:33;;;;;;;11.45;5.60;;;11.60;99.90;;;;;;5033756;28;20029;-76
2022/09/21 06:56:07;;;;;;;11.55;5.55;;;11.60;99.90;;;;;;5032510;28;20429;-76
2022/09/21 06:58:34;;;;;;;10.60;5.30;;;11.70;99.90;;;;;;5033616;28;20032;-76
2022/09/21 07:01:13;;;;;;;9.98;5.25;;;11.70;99.90;;;;;;5033540;28;20024;-76
2022/09/21 07:03:40;;;;;;;11.80;5.65;;;11.70;99.90;;;;;;5035116;28;20025;-76
2022/09/21 07:06:07;;;;;;;15.60;6.22;;;11.70;99.90;;;;;;5048457;28;20029;-76
2022/09/21 07:08:33;;;;;;;10.43;5.97;;;11.70;99.90;;;;;;5033770;28;20089;-76
2022/09/21 07:10:59;;;;;;;12.50;6.07;;;11.70;99.90;;;;;;5033475;28;20482;-76
2022/09/21 07:13:26;;;;;;;9.52;6.43;;;11.70;99.90;;;;;;5031023;28;20248;-76
2022/09/21 07:15:51;;;;;;;14.32;6.28;;;11.70;99.90;;;;;;5031420;28;20135;-76
2022/09/21 07:18:17;;;;;;;16.42;6.72;;;11.80;99.90;;;;;;5045932;28;20022;-76
2022/09/21 07:20:43;;;;;;;16.27;7.10;;;11.80;99.90;;;;;;5032912;28;20029;-76
2022/09/21 07:23:14;;;;;;;15.57;6.97;;;11.80;99.90;;;;;;5035012;28;20476;-76
2022/09/21 07:25:40;;;;;;;15.15;6.53;;;11.90;99.90;;;;;;5033708;28;20024;-76
2022/09/21 07:28:07;;;;;;;11.63;6.82;;;11.90;99.90;;;;;;5034258;28;20462;-76
2022/09/21 07:30:33;;;;;;;12.38;6.35;;;12.00;99.90;;;;;;5033473;28;20379;-76
2022/09/21 07:32:58;;;;;;;14.00;6.82;;;12.00;99.90;;;;;;5043568;28;20075;-76
2022/09/21 07:35:24;;;;;;;16.95;5.93;;;12.00;99.90;;;;;;5018392;28;20076;-76
2022/09/21 07:37:49;;;;;;;11.75;6.13;;;12.10;99.90;;;;;;5017846;28;20013;-76
2022/09/21 07:40:15;;;;;;;10.43;4.90;;;12.10;99.90;;;;;;5034009;28;20029;-76
2022/09/21 07:42:43;;;;;;;17.75;5.63;;;12.20;99.90;;;;;;5045230;28;20121;-76
2022/09/21 07:45:10;;;;;;;9.25;4.50;;;12.30;99.90;;;;;;5031989;28;20044;-76
2022/09/21 07:47:35;;;;;;;12.52;4.15;;;12.40;99.90;;;;;;5025983;28;20022;-76
2022/09/21 07:50:01;;;;;;;11.77;3.72;;;12.40;99.90;;;;;;5021853;28;20036;-76
2022/09/21 07:52:26;;;;;;;9.95;3.38;;;12.60;99.90;;;;;;5045710;28;20068;-76
2022/09/21 07:54:52;;;;;;;10.57;3.70;;;12.70;99.90;;;;;;5032757;28;20174;-76
2022/09/21 08:00:03;;;;;;;10.38;2.80;;;12.90;99.90;;;;;;5031733;28;20496;-76
2022/09/21 08:02:28;;;;;;;9.73;2.60;;;13.10;99.90;;;;;;5030956;28;20087;-76
2022/09/21 08:04:54;;;;;;;6.97;2.10;;;13.20;99.90;;;;;;5039319;28;20439;-76
2022/09/21 08:07:20;;;;;;;9.48;2.20;;;13.30;99.90;;;;;;5036403;28;20033;-76
2022/09/21 08:09:48;;;;;;;8.95;2.00;;;13.40;99.90;;;;;;5036203;28;20060;-76
2022/09/21 08:12:17;;;;;;;6.43;2.10;;;13.50;99.90;;;;;;5038842;28;20040;-76
2022/09/21 08:14:43;;;;;;;8.98;1.80;;;13.70;99.90;;;;;;5030882;28;20014;-76
2022/09/21 08:17:09;;;;;;;7.00;1.83;;;13.90;99.90;;;;;;5031764;28;20398;-77
2022/09/21 08:19:35;;;;;;;6.78;1.85;;;14.00;99.90;;;;;;5028366;28;20025;-77
2022/09/21 08:22:01;;;;;;;5.90;1.92;;;14.20;99.90;;;;;;5031424;28;20598;-75
2022/09/21 08:24:26;;;;;;;7.18;1.92;;;14.40;99.90;;;;;;5041937;28;20017;-76
2022/09/21 08:26:52;;;;;;;6.70;1.50;;;14.60;99.90;;;;;;5041391;28;20049;-77
2022/09/21 08:29:18;;;;;;;7.43;1.30;;;14.70;99.90;;;;;;5039327;28;20025;-75
2022/09/21 08:31:45;;;;;;;8.35;2.00;;;14.90;99.90;;;;;;5049693;28;20530;-74
2022/09/21 08:34:11;;;;;;;7.32;1.60;;;15.10;99.90;;;;;;5046085;28;20026;-73
2022/09/21 08:36:36;;;;;;;6.10;1.45;;;15.20;99.90;;;;;;5050042;28;20025;-74
2022/09/21 08:39:06;;;;;;;6.30;1.63;;;15.30;99.90;;;;;;5047706;28;20354;-76
2022/09/21 08:41:40;;;;;;;7.75;1.50;;;15.50;99.90;;;;;;5049612;28;20043;-76
2022/09/21 08:44:23;;;;;;;9.30;1.58;;;15.60;99.90;;;;;;5044055;28;20014;-76
2022/09/21 08:47:17;;;;;;;8.05;1.83;;;15.80;99.90;;;;;;5041268;28;20067;-76
2022/09/21 08:49:50;;;;;;;6.65;1.58;;;15.90;99.90;;;;;;5027164;28;20049;-75
2022/09/21 08:52:18;;;;;;;7.57;1.80;;;16.00;99.90;;;;;;5025950;28;20103;-75
2022/09/21 08:54:57;;;;;;;6.82;1.35;;;16.10;99.90;;;;;;5027598;28;20428;-76
2022/09/21 08:57:28;;;;;;;7.78;1.63;;;16.20;99.90;;;;;;5024992;28;20038;-79
2022/09/21 08:59:54;;;;;;;6.22;1.40;;;16.40;99.90;;;;;;5010681;28;20514;-74
2022/09/21 09:02:49;;;;;;;6.28;1.23;;;16.60;99.90;;;;;;5015356;28;20068;-76
2022/09/21 09:05:53;;;;;;;8.13;1.30;;;16.80;99.90;;;;;;5009625;28;20026;-75
2022/09/21 09:08:27;;;;;;;5.00;1.23;;;17.00;99.90;;;;;;5009748;28;20443;-75
2022/09/21 09:11:32;;;;;;;5.68;1.42;;;17.20;99.90;;;;;;5004146;28;20022;-76
2022/09/21 09:14:01;;;;;;;6.38;1.15;;;17.50;99.90;;;;;;4971589;28;20061;-76
2022/09/21 09:16:51;;;;;;;7.30;1.13;;;17.70;99.90;;;;;;5009269;28;20101;-76
2022/09/21 09:19:29;;;;;;;6.18;1.10;;;17.70;99.90;;;;;;5008710;28;20030;-76
2022/09/21 09:21:55;;;;;;;8.82;1.10;;;17.80;99.90;;;;;;4992580;28;20105;-75
2022/09/21 09:24:39;;;;;;;5.72;1.13;;;17.90;99.90;;;;;;5009483;28;20057;-76
2022/09/21 09:27:29;;;;;;;8.90;1.17;;;18.00;99.90;;;;;;5011919;28;20486;-76
2022/09/21 09:30:03;;;;;;;4.53;0.90;;;18.00;99.90;;;;;;5031490;28;20032;-76
2022/09/21 09:32:55;;;;;;;3.50;0.93;;;18.10;99.90;;;;;;5031608;28;20049;-75
2022/09/21 09:35:46;;;;;;;4.22;0.90;;;18.10;99.90;;;;;;5032098;28;20044;-75
2022/09/21 09:38:47;;;;;;;8.45;1.20;;;18.30;99.90;;;;;;5025942;28;20041;-75
2022/09/21 09:41:15;;;;;;;5.70;1.13;;;18.40;99.90;;;;;;5036749;28;20056;-75
2022/09/21 09:44:00;;;;;;;8.32;2.47;;;18.40;99.90;;;;;;5030768;28;20436;-75
2022/09/21 09:46:58;;;;;;;6.28;1.40;;;18.50;99.90;;;;;;5024698;28;20017;-75
2022/09/21 09:49:32;;;;;;;5.85;1.42;;;18.70;99.90;;;;;;5017217;28;20515;-75
2022/09/21 09:51:58;;;;;;;8.93;1.15;;;18.80;99.90;;;;;;5031089;28;20072;-75
2022/09/21 09:54:26;;;;;;;6.22;1.10;;;18.80;99.90;;;;;;5037872;28;20087;-74
2022/09/21 09:56:54;;;;;;;3.60;1.13;;;18.90;99.90;;;;;;5044113;28;20083;-75
2022/09/21 09:59:34;;;;;;;5.18;1.10;;;19.00;99.90;;;;;;5033124;28;20064;-75
2022/09/21 10:02:06;;;;;;;4.32;1.02;;;19.00;99.90;;;;;;5037430;28;20033;-75
2022/09/21 10:04:33;;;;;;;4.20;1.17;;;19.00;99.90;;;;;;5030465;28;20083;-75
2022/09/21 10:06:59;;;;;;;5.20;1.00;;;18.90;99.70;;;;;;5030080;28;20017;-75
2022/09/21 10:09:31;;;;;;;6.25;1.00;;;18.90;99.40;;;;;;5030493;28;20549;-75
2022/09/21 10:12:00;;;;;;;4.45;1.00;;;18.90;98.90;;;;;;5030494;28;20037;-74
2022/09/21 10:14:31;;;;;;;3.53;1.10;;;18.90;98.60;;;;;;5029967;28;20061;-75
2022/09/21 10:17:04;;;;;;;9.07;1.30;;;19.00;98.90;;;;;;5037991;28;20034;-75
2022/09/21 10:19:30;;;;;;;3.65;1.15;;;19.20;98.80;;;;;;5030297;28;20465;-75
2022/09/21 10:21:58;;;;;;;6.22;1.30;;;19.30;98.50;;;;;;5030960;28;20034;-75
2022/09/21 10:24:32;;;;;;;5.70;0.80;;;19.40;98.10;;;;;;5030847;28;20104;-75
2022/09/21 10:27:10;;;;;;;3.03;0.90;;;19.50;97.60;;;;;;5030318;28;20017;-75
2022/09/21 10:29:47;;;;;;;8.63;1.40;;;19.50;96.90;;;;;;5030200;28;20048;-75
2022/09/21 10:32:15;;;;;;;7.43;0.90;;;19.50;96.50;;;;;;5028679;28;20025;-75
2022/09/21 10:34:58;;;;;;;4.28;0.80;;;19.50;96.10;;;;;;5018807;28;20413;-75
2022/09/21 10:37:27;;;;;;;4.68;0.80;;;19.70;96.20;;;;;;5032686;28;20018;-75
2022/09/21 10:39:53;;;;;;;4.95;1.00;;;19.80;95.90;;;;;;5041318;28;20074;-75
2022/09/21 10:42:20;;;;;;;7.22;1.10;;;19.90;95.40;;;;;;5043519;28;20036;-75
2022/09/21 10:44:49;;;;;;;3.40;0.70;;;20.00;95.10;;;;;;5030427;28;20018;-75
2022/09/21 10:47:35;;;;;;;5.25;1.40;;;20.20;94.80;;;;;;5027848;28;20071;-75
2022/09/21 10:50:18;;;;;;;6.20;0.95;;;20.30;94.00;;;;;;5020526;28;20424;-75
2022/09/21 10:52:44;;;;;;;4.35;0.80;;;20.30;93.60;;;;;;5043834;28;20060;-75
2022/09/21 10:55:22;;;;;;;3.03;0.68;;;20.20;93.00;;;;;;5040359;28;20096;-76
2022/09/21 10:57:49;;;;;;;3.10;0.80;;;20.10;92.20;;;;;;5030257;28;20382;-76
2022/09/21 11:00:23;;;;;;;3.30;0.80;;;19.90;91.90;;;;;;5040973;28;20549;-75
2022/09/21 11:02:49;;;;;;;4.00;1.03;;;19.80;91.10;;;;;;5035241;28;20104;-75
2022/09/21 11:05:26;;;;;;;1.83;0.80;;;19.80;91.30;;;;;;5050326;28;20092;-75
2022/09/21 11:08:19;;;;;;;2.75;0.90;;;19.80;90.40;;;;;;5031751;28;20033;-75
2022/09/21 11:10:44;;;;;;;5.35;1.05;;;19.70;90.50;;;;;;5029972;28;20025;-75
2022/09/21 11:13:26;;;;;;;3.75;0.90;;;19.70;91.00;;;;;;5029282;28;20036;-75
2022/09/21 11:16:28;;;;;;;5.45;0.90;;;19.80;90.70;;;;;;5030157;28;20038;-75
2022/09/21 11:18:59;;;;;;;3.72;0.95;;;19.90;90.40;;;;;;5020124;28;20033;-76
2022/09/21 11:21:35;;;;;;;5.60;1.13;;;20.00;90.00;;;;;;5029779;28;20021;-75
2022/09/21 11:24:39;;;;;;;3.35;0.82;;;20.10;89.00;;;;;;5029320;28;20425;-75
2022/09/21 11:27:20;;;;;;;2.95;0.80;;;20.30;88.80;;;;;;5030663;28;20115;-75
2022/09/21 11:29:57;;;;;;;5.38;1.00;;;20.50;86.40;;;;;;5040510;28;20037;-75
2022/09/21 11:32:53;;;;;;;5.03;0.85;;;20.60;85.40;;;;;;5043157;28;20022;-75
2022/09/21 11:35:40;;;;;;;3.42;0.80;;;20.70;84.70;;;;;;5027096;28;20539;-75
2022/09/21 11:38:29;;;;;;;3.13;0.80;;;20.90;83.40;;;;;;5015598;28;20026;-76
2022/09/21 11:41:15;;;;;;;4.57;0.75;;;21.00;80.70;;;;;;5026089;28;20068;-75
2022/09/21 11:43:54;;;;;;;3.15;0.60;;;21.00;82.40;;;;;;5027081;28;20052;-75
2022/09/21 11:46:57;;;;;;;4.28;0.75;;;21.00;81.40;;;;;;5026441;28;20482;-75
2022/09/21 11:50:21;;;;;;;2.72;0.60;;;21.00;81.40;;;;;;5006461;28;20038;-75
2022/09/21 11:52:47;;;;;;;2.67;0.70;;;21.00;81.30;;;;;;4934682;28;20415;-75
2022/09/21 11:55:15;;;;;;;2.45;0.60;;;20.90;80.40;;;;;;4948537;28;20035;-75
2022/09/21 11:58:09;;;;;;;3.67;0.77;;;20.70;78.90;;;;;;4934998;28;20500;-75
2022/09/21 12:00:51;;;;;;;2.33;0.70;;;20.50;78.00;;;;;;4948162;28;20044;-77
2022/09/21 12:03:31;;;;;;;3.72;0.88;;;20.30;76.80;;;;;;4948677;28;20118;-75
2022/09/21 12:06:15;;;;;;;4.90;0.90;;;20.10;77.80;;;;;;4949345;28;20437;-75
2022/09/21 12:08:49;;;;;;;5.65;0.80;;;20.00;79.30;;;;;;4952060;28;20054;-74
2022/09/21 12:11:33;;;;;;;5.40;0.98;;;20.00;80.50;;;;;;4935072;28;20023;-74
2022/09/21 12:14:06;;;;;;;3.45;0.90;;;20.20;81.10;;;;;;4944546;28;20126;-73
2022/09/21 12:16:55;;;;;;;2.63;0.70;;;20.40;81.20;;;;;;4965371;28;20035;-74
2022/09/21 12:19:39;;;;;;;3.35;0.60;;;20.50;80.90;;;;;;4952066;28;20407;-74
2022/09/21 12:22:12;;;;;;;3.05;0.80;;;20.60;80.20;;;;;;4951562;28;20521;-73
2022/09/21 12:24:50;;;;;;;4.22;0.93;;;20.80;80.30;;;;;;4953023;28;20030;-74
2022/09/21 12:27:19;;;;;;;3.65;0.60;;;20.80;78.80;;;;;;5025414;28;20531;-74
2022/09/21 12:29:52;;;;;;;5.07;0.80;;;20.80;77.90;;;;;;5052949;28;20036;-74
2022/09/21 12:32:27;;;;;;;6.22;0.93;;;20.80;77.10;;;;;;5033901;28;20100;-74
2022/09/21 12:35:01;;;;;;;2.67;0.60;;;20.70;77.10;;;;;;5034584;28;20065;-74
2022/09/21 12:37:44;;;;;;;3.73;0.90;;;20.70;76.70;;;;;;5029617;28;20355;-74
2022/09/21 12:40:23;;;;;;;2.78;0.90;;;20.80;77.10;;;;;;5032819;28;20112;-74
2022/09/21 12:42:55;;;;;;;4.18;0.90;;;20.80;76.90;;;;;;5032357;28;20057;-74
2022/09/21 12:45:35;;;;;;;3.70;0.65;;;20.80;76.50;;;;;;5032533;28;20040;-74
2022/09/21 12:48:13;;;;;;;4.18;0.85;;;20.80;76.00;;;;;;5023659;28;20014;-74
2022/09/21 12:50:43;;;;;;;3.63;1.00;;;20.90;76.10;;;;;;5041977;28;20025;-73
2022/09/21 12:53:17;;;;;;;4.68;0.82;;;20.80;74.90;;;;;;5032990;28;20079;-74
2022/09/21 12:56:00;;;;;;;4.80;1.10;;;20.80;74.90;;;;;;5032144;28;20013;-74
2022/09/21 12:58:29;;;;;;;3.05;0.90;;;20.80;75.60;;;;;;5032949;28;20409;-73
2022/09/21 13:01:04;;;;;;;6.20;0.85;;;20.80;76.30;;;;;;5035089;28;20048;-74
2022/09/21 13:03:40;;;;;;;4.85;0.85;;;20.80;76.40;;;;;;5042857;28;20025;-74
2022/09/21 13:06:39;;;;;;;2.92;0.90;;;20.90;76.50;;;;;;5035035;28;20053;-74
2022/09/21 13:09:09;;;;;;;2.65;0.75;;;20.90;75.20;;;;;;5051067;28;20029;-74
2022/09/21 13:11:55;;;;;;;4.45;0.90;;;20.80;75.70;;;;;;5032069;28;20037;-74
2022/09/21 13:14:24;;;;;;;4.40;1.00;;;20.90;75.70;;;;;;5032082;28;20249;-74